sensor_id;sensor_type;location;lat;lon;timestamp;P1;durP1;ratioP1;P2;durP2;ratioP2
19507;SDS011;40157;42.566;27.526;2024-01-16T00:01:57;18.83;;;9.00;;
19507;SDS011;40157;42.566;27.526;2024-01-16T00:03:57;18.67;;;8.90;;
19507;SDS011;40157;42.566;27.526;2024-01-16T00:06:06;20.90;;;10.03;;
19507;SDS011;40157;42.566;27.526;2024-01-16T00:08:07;20.87;;;8.57;;
19507;SDS011;40157;42.566;27.526;2024-01-16T00:10:08;18.13;;;9.37;;
19507;SDS011;40157;42.566;27.526;2024-01-16T00:12:08;17.10;;;9.10;;
19507;SDS011;40157;42.566;27.526;2024-01-16T00:14:09;18.07;;;9.13;;
19507;SDS011;40157;42.566;27.526;2024-01-16T00:16:10;18.53;;;9.07;;
19507;SDS011;40157;42.566;27.526;2024-01-16T00:18:10;24.57;;;8.50;;
19507;SDS011;40157;42.566;27.526;2024-01-16T00:20:11;23.47;;;9.33;;
19507;SDS011;40157;42.566;27.526;2024-01-16T00:22:11;20.13;;;9.57;;
19507;SDS011;40157;42.566;27.526;2024-01-16T00:24:15;22.87;;;10.00;;
19507;SDS011;40157;42.566;27.526;2024-01-16T00:26:19;20.37;;;9.53;;
19507;SDS011;40157;42.566;27.526;2024-01-16T00:28:22;21.07;;;9.30;;
19507;SDS011;40157;42.566;27.526;2024-01-16T00:30:23;20.20;;;8.77;;
19507;SDS011;40157;42.566;27.526;2024-01-16T00:32:23;21.50;;;9.67;;
19507;SDS011;40157;42.566;27.526;2024-01-16T00:34:23;20.33;;;9.47;;
19507;SDS011;40157;42.566;27.526;2024-01-16T00:36:24;22.43;;;9.27;;
19507;SDS011;40157;42.566;27.526;2024-01-16T00:38:24;22.77;;;9.60;;
19507;SDS011;40157;42.566;27.526;2024-01-16T00:40:25;20.77;;;9.43;;
19507;SDS011;40157;42.566;27.526;2024-01-16T00:42:25;20.10;;;10.17;;
19507;SDS011;40157;42.566;27.526;2024-01-16T00:44:26;21.73;;;10.03;;
19507;SDS011;40157;42.566;27.526;2024-01-16T00:46:26;31.53;;;13.10;;
19507;SDS011;40157;42.566;27.526;2024-01-16T00:48:26;40.60;;;15.00;;
19507;SDS011;40157;42.566;27.526;2024-01-16T00:50:27;30.87;;;13.40;;
19507;SDS011;40157;42.566;27.526;2024-01-16T00:52:30;34.90;;;13.27;;
19507;SDS011;40157;42.566;27.526;2024-01-16T00:54:30;30.17;;;12.77;;
19507;SDS011;40157;42.566;27.526;2024-01-16T00:56:30;28.70;;;11.07;;
19507;SDS011;40157;42.566;27.526;2024-01-16T00:58:33;25.83;;;11.10;;
19507;SDS011;40157;42.566;27.526;2024-01-16T01:00:33;30.90;;;13.40;;
19507;SDS011;40157;42.566;27.526;2024-01-16T01:02:35;27.63;;;12.50;;
19507;SDS011;40157;42.566;27.526;2024-01-16T01:04:35;25.23;;;12.43;;
19507;SDS011;40157;42.566;27.526;2024-01-16T01:06:36;26.60;;;12.57;;
19507;SDS011;40157;42.566;27.526;2024-01-16T01:08:36;31.80;;;12.60;;
19507;SDS011;40157;42.566;27.526;2024-01-16T01:10:37;28.80;;;12.93;;
19507;SDS011;40157;42.566;27.526;2024-01-16T01:12:37;27.73;;;14.03;;
19507;SDS011;40157;42.566;27.526;2024-01-16T01:14:38;36.83;;;14.20;;
19507;SDS011;40157;42.566;27.526;2024-01-16T01:16:38;33.27;;;14.30;;
19507;SDS011;40157;42.566;27.526;2024-01-16T01:18:38;30.53;;;12.63;;
19507;SDS011;40157;42.566;27.526;2024-01-16T01:20:39;26.97;;;13.30;;
19507;SDS011;40157;42.566;27.526;2024-01-16T01:22:39;27.37;;;12.27;;
19507;SDS011;40157;42.566;27.526;2024-01-16T01:24:40;30.17;;;14.30;;
19507;SDS011;40157;42.566;27.526;2024-01-16T01:26:43;39.60;;;14.83;;
19507;SDS011;40157;42.566;27.526;2024-01-16T01:28:44;24.10;;;11.53;;
19507;SDS011;40157;42.566;27.526;2024-01-16T01:30:44;29.33;;;11.20;;
19507;SDS011;40157;42.566;27.526;2024-01-16T01:32:45;23.40;;;10.50;;
19507;SDS011;40157;42.566;27.526;2024-01-16T01:34:45;23.40;;;11.33;;
19507;SDS011;40157;42.566;27.526;2024-01-16T01:36:46;24.23;;;11.23;;
19507;SDS011;40157;42.566;27.526;2024-01-16T01:38:47;24.67;;;10.87;;
19507;SDS011;40157;42.566;27.526;2024-01-16T01:40:47;24.03;;;11.33;;
19507;SDS011;40157;42.566;27.526;2024-01-16T01:42:48;24.70;;;12.27;;
19507;SDS011;40157;42.566;27.526;2024-01-16T01:44:48;22.30;;;10.30;;
19507;SDS011;40157;42.566;27.526;2024-01-16T01:46:49;24.20;;;11.77;;
19507;SDS011;40157;42.566;27.526;2024-01-16T01:48:49;28.77;;;11.73;;
19507;SDS011;40157;42.566;27.526;2024-01-16T01:50:50;26.00;;;11.83;;
19507;SDS011;40157;42.566;27.526;2024-01-16T01:52:50;28.27;;;12.20;;
19507;SDS011;40157;42.566;27.526;2024-01-16T01:54:51;25.97;;;11.87;;
19507;SDS011;40157;42.566;27.526;2024-01-16T01:56:52;22.07;;;10.43;;
19507;SDS011;40157;42.566;27.526;2024-01-16T01:58:53;21.23;;;10.27;;
19507;SDS011;40157;42.566;27.526;2024-01-16T02:00:56;21.57;;;10.20;;
19507;SDS011;40157;42.566;27.526;2024-01-16T02:02:57;20.20;;;9.80;;
19507;SDS011;40157;42.566;27.526;2024-01-16T02:04:58;19.40;;;8.77;;
19507;SDS011;40157;42.566;27.526;2024-01-16T02:06:58;19.17;;;8.33;;
19507;SDS011;40157;42.566;27.526;2024-01-16T02:08:59;20.23;;;8.53;;
19507;SDS011;40157;42.566;27.526;2024-01-16T02:10:59;18.30;;;8.20;;
19507;SDS011;40157;42.566;27.526;2024-01-16T02:13:00;19.03;;;8.37;;
19507;SDS011;40157;42.566;27.526;2024-01-16T02:15:01;17.17;;;7.67;;
19507;SDS011;40157;42.566;27.526;2024-01-16T02:17:01;17.90;;;8.30;;
19507;SDS011;40157;42.566;27.526;2024-01-16T02:19:01;17.60;;;8.47;;
19507;SDS011;40157;42.566;27.526;2024-01-16T02:21:03;22.60;;;8.03;;
19507;SDS011;40157;42.566;27.526;2024-01-16T02:23:05;17.33;;;8.30;;
19507;SDS011;40157;42.566;27.526;2024-01-16T02:25:07;18.93;;;8.43;;
19507;SDS011;40157;42.566;27.526;2024-01-16T02:27:08;22.40;;;9.20;;
19507;SDS011;40157;42.566;27.526;2024-01-16T02:29:08;16.40;;;8.00;;
19507;SDS011;40157;42.566;27.526;2024-01-16T02:31:09;20.40;;;9.63;;
19507;SDS011;40157;42.566;27.526;2024-01-16T02:33:09;22.23;;;9.57;;
19507;SDS011;40157;42.566;27.526;2024-01-16T02:35:10;20.87;;;9.50;;
19507;SDS011;40157;42.566;27.526;2024-01-16T02:37:10;28.00;;;11.80;;
19507;SDS011;40157;42.566;27.526;2024-01-16T02:39:11;27.13;;;12.43;;
19507;SDS011;40157;42.566;27.526;2024-01-16T02:41:13;24.60;;;12.23;;
19507;SDS011;40157;42.566;27.526;2024-01-16T02:43:16;26.77;;;12.23;;
19507;SDS011;40157;42.566;27.526;2024-01-16T02:45:16;27.20;;;13.33;;
19507;SDS011;40157;42.566;27.526;2024-01-16T02:47:17;32.63;;;13.93;;
19507;SDS011;40157;42.566;27.526;2024-01-16T02:49:17;24.57;;;12.13;;
19507;SDS011;40157;42.566;27.526;2024-01-16T02:51:18;24.53;;;12.00;;
19507;SDS011;40157;42.566;27.526;2024-01-16T02:53:18;26.47;;;10.33;;
19507;SDS011;40157;42.566;27.526;2024-01-16T02:55:19;23.40;;;9.77;;
19507;SDS011;40157;42.566;27.526;2024-01-16T02:57:19;23.20;;;9.40;;
19507;SDS011;40157;42.566;27.526;2024-01-16T02:59:20;19.43;;;9.73;;
19507;SDS011;40157;42.566;27.526;2024-01-16T03:01:21;27.30;;;10.83;;
19507;SDS011;40157;42.566;27.526;2024-01-16T03:03:21;24.03;;;10.13;;
19507;SDS011;40157;42.566;27.526;2024-01-16T03:05:22;19.83;;;8.87;;
19507;SDS011;40157;42.566;27.526;2024-01-16T03:07:22;17.30;;;8.83;;
19507;SDS011;40157;42.566;27.526;2024-01-16T03:09:23;22.57;;;10.20;;
19507;SDS011;40157;42.566;27.526;2024-01-16T03:11:24;28.23;;;11.63;;
19507;SDS011;40157;42.566;27.526;2024-01-16T03:13:24;28.67;;;11.50;;
19507;SDS011;40157;42.566;27.526;2024-01-16T03:15:24;25.13;;;11.13;;
19507;SDS011;40157;42.566;27.526;2024-01-16T03:17:25;22.27;;;10.60;;
19507;SDS011;40157;42.566;27.526;2024-01-16T03:19:26;23.90;;;10.00;;
19507;SDS011;40157;42.566;27.526;2024-01-16T03:21:27;20.30;;;10.43;;
19507;SDS011;40157;42.566;27.526;2024-01-16T03:23:27;23.57;;;10.53;;
19507;SDS011;40157;42.566;27.526;2024-01-16T03:25:28;21.37;;;9.80;;
19507;SDS011;40157;42.566;27.526;2024-01-16T03:27:28;20.80;;;9.43;;
19507;SDS011;40157;42.566;27.526;2024-01-16T03:29:29;23.10;;;9.67;;
19507;SDS011;40157;42.566;27.526;2024-01-16T03:31:29;20.67;;;9.67;;
19507;SDS011;40157;42.566;27.526;2024-01-16T03:33:30;22.90;;;9.90;;
19507;SDS011;40157;42.566;27.526;2024-01-16T03:35:30;23.03;;;10.87;;
19507;SDS011;40157;42.566;27.526;2024-01-16T03:37:31;25.80;;;11.93;;
19507;SDS011;40157;42.566;27.526;2024-01-16T03:39:31;28.93;;;11.40;;
19507;SDS011;40157;42.566;27.526;2024-01-16T03:41:32;25.40;;;11.40;;
19507;SDS011;40157;42.566;27.526;2024-01-16T03:43:33;24.87;;;11.27;;
19507;SDS011;40157;42.566;27.526;2024-01-16T03:45:34;26.23;;;11.10;;
19507;SDS011;40157;42.566;27.526;2024-01-16T03:47:34;28.57;;;12.33;;
19507;SDS011;40157;42.566;27.526;2024-01-16T03:49:35;27.50;;;11.70;;
19507;SDS011;40157;42.566;27.526;2024-01-16T03:51:35;23.80;;;11.17;;
19507;SDS011;40157;42.566;27.526;2024-01-16T03:53:36;22.80;;;10.93;;
19507;SDS011;40157;42.566;27.526;2024-01-16T03:55:36;24.87;;;10.70;;
19507;SDS011;40157;42.566;27.526;2024-01-16T03:57:36;27.73;;;12.10;;
19507;SDS011;40157;42.566;27.526;2024-01-16T03:59:37;31.93;;;13.07;;
19507;SDS011;40157;42.566;27.526;2024-01-16T04:01:38;22.47;;;11.20;;
19507;SDS011;40157;42.566;27.526;2024-01-16T04:03:39;26.67;;;11.17;;
19507;SDS011;40157;42.566;27.526;2024-01-16T04:05:39;26.70;;;12.23;;
19507;SDS011;40157;42.566;27.526;2024-01-16T04:07:40;23.90;;;11.93;;
19507;SDS011;40157;42.566;27.526;2024-01-16T04:09:41;31.20;;;13.07;;
19507;SDS011;40157;42.566;27.526;2024-01-16T04:11:43;26.67;;;12.27;;
19507;SDS011;40157;42.566;27.526;2024-01-16T04:13:43;21.20;;;11.37;;
19507;SDS011;40157;42.566;27.526;2024-01-16T04:15:43;25.87;;;12.60;;
19507;SDS011;40157;42.566;27.526;2024-01-16T04:17:44;25.07;;;11.70;;
19507;SDS011;40157;42.566;27.526;2024-01-16T04:19:44;21.13;;;10.23;;
19507;SDS011;40157;42.566;27.526;2024-01-16T04:21:45;25.03;;;11.57;;
19507;SDS011;40157;42.566;27.526;2024-01-16T04:23:45;25.20;;;11.10;;
19507;SDS011;40157;42.566;27.526;2024-01-16T04:25:45;25.10;;;11.00;;
19507;SDS011;40157;42.566;27.526;2024-01-16T04:27:46;21.47;;;10.80;;
19507;SDS011;40157;42.566;27.526;2024-01-16T04:29:46;25.50;;;12.03;;
19507;SDS011;40157;42.566;27.526;2024-01-16T04:31:47;27.10;;;12.43;;
19507;SDS011;40157;42.566;27.526;2024-01-16T04:33:47;28.33;;;12.70;;
19507;SDS011;40157;42.566;27.526;2024-01-16T04:35:48;24.03;;;11.37;;
19507;SDS011;40157;42.566;27.526;2024-01-16T04:37:48;29.50;;;13.43;;
19507;SDS011;40157;42.566;27.526;2024-01-16T04:39:49;31.00;;;14.20;;
19507;SDS011;40157;42.566;27.526;2024-01-16T04:41:50;23.73;;;12.37;;
19507;SDS011;40157;42.566;27.526;2024-01-16T04:43:50;27.13;;;11.17;;
19507;SDS011;40157;42.566;27.526;2024-01-16T04:45:51;22.03;;;11.43;;
19507;SDS011;40157;42.566;27.526;2024-01-16T04:47:51;23.47;;;10.67;;
19507;SDS011;40157;42.566;27.526;2024-01-16T04:49:52;23.20;;;11.23;;
19507;SDS011;40157;42.566;27.526;2024-01-16T04:51:52;25.57;;;11.20;;
19507;SDS011;40157;42.566;27.526;2024-01-16T04:53:53;22.23;;;9.90;;
19507;SDS011;40157;42.566;27.526;2024-01-16T04:55:53;24.50;;;11.23;;
19507;SDS011;40157;42.566;27.526;2024-01-16T04:57:54;24.77;;;10.80;;
19507;SDS011;40157;42.566;27.526;2024-01-16T04:59:54;26.90;;;10.97;;
19507;SDS011;40157;42.566;27.526;2024-01-16T05:01:55;21.13;;;10.67;;
19507;SDS011;40157;42.566;27.526;2024-01-16T05:03:55;21.40;;;10.17;;
19507;SDS011;40157;42.566;27.526;2024-01-16T05:05:57;22.37;;;10.60;;
19507;SDS011;40157;42.566;27.526;2024-01-16T05:07:57;20.23;;;10.07;;
19507;SDS011;40157;42.566;27.526;2024-01-16T05:10:01;23.30;;;11.13;;
19507;SDS011;40157;42.566;27.526;2024-01-16T05:12:02;24.87;;;10.87;;
19507;SDS011;40157;42.566;27.526;2024-01-16T05:14:03;22.87;;;9.73;;
19507;SDS011;40157;42.566;27.526;2024-01-16T05:16:03;21.57;;;10.07;;
19507;SDS011;40157;42.566;27.526;2024-01-16T05:18:04;22.50;;;9.97;;
19507;SDS011;40157;42.566;27.526;2024-01-16T05:20:05;33.53;;;12.90;;
19507;SDS011;40157;42.566;27.526;2024-01-16T05:22:06;21.27;;;10.30;;
19507;SDS011;40157;42.566;27.526;2024-01-16T05:24:07;23.23;;;10.50;;
19507;SDS011;40157;42.566;27.526;2024-01-16T05:26:08;19.27;;;9.97;;
19507;SDS011;40157;42.566;27.526;2024-01-16T05:28:08;23.67;;;9.03;;
19507;SDS011;40157;42.566;27.526;2024-01-16T05:30:09;27.70;;;11.60;;
19507;SDS011;40157;42.566;27.526;2024-01-16T05:32:10;23.80;;;10.63;;
19507;SDS011;40157;42.566;27.526;2024-01-16T05:34:12;28.90;;;11.77;;
19507;SDS011;40157;42.566;27.526;2024-01-16T05:36:12;25.83;;;11.07;;
19507;SDS011;40157;42.566;27.526;2024-01-16T05:38:12;24.40;;;10.73;;
19507;SDS011;40157;42.566;27.526;2024-01-16T05:40:13;25.93;;;10.17;;
19507;SDS011;40157;42.566;27.526;2024-01-16T05:42:14;26.60;;;12.13;;
19507;SDS011;40157;42.566;27.526;2024-01-16T05:44:14;34.23;;;15.60;;
19507;SDS011;40157;42.566;27.526;2024-01-16T05:46:15;35.83;;;18.13;;
19507;SDS011;40157;42.566;27.526;2024-01-16T05:48:16;43.07;;;21.90;;
19507;SDS011;40157;42.566;27.526;2024-01-16T05:50:17;40.97;;;18.10;;
19507;SDS011;40157;42.566;27.526;2024-01-16T05:52:18;27.10;;;13.40;;
19507;SDS011;40157;42.566;27.526;2024-01-16T05:54:18;32.97;;;15.77;;
19507;SDS011;40157;42.566;27.526;2024-01-16T05:56:19;34.10;;;13.53;;
19507;SDS011;40157;42.566;27.526;2024-01-16T05:58:19;27.00;;;13.30;;
19507;SDS011;40157;42.566;27.526;2024-01-16T06:00:20;27.80;;;12.63;;
19507;SDS011;40157;42.566;27.526;2024-01-16T06:02:23;29.57;;;13.77;;
19507;SDS011;40157;42.566;27.526;2024-01-16T06:04:24;29.93;;;16.80;;
19507;SDS011;40157;42.566;27.526;2024-01-16T06:06:24;48.57;;;23.07;;
19507;SDS011;40157;42.566;27.526;2024-01-16T06:08:25;41.47;;;17.97;;
19507;SDS011;40157;42.566;27.526;2024-01-16T06:10:26;38.97;;;18.37;;
19507;SDS011;40157;42.566;27.526;2024-01-16T06:12:26;40.43;;;19.77;;
19507;SDS011;40157;42.566;27.526;2024-01-16T06:14:26;37.27;;;18.73;;
19507;SDS011;40157;42.566;27.526;2024-01-16T06:16:27;37.70;;;16.73;;
19507;SDS011;40157;42.566;27.526;2024-01-16T06:18:27;34.27;;;14.87;;
19507;SDS011;40157;42.566;27.526;2024-01-16T06:20:27;42.53;;;18.33;;
19507;SDS011;40157;42.566;27.526;2024-01-16T06:22:29;35.47;;;16.63;;
19507;SDS011;40157;42.566;27.526;2024-01-16T06:24:29;38.40;;;17.17;;
19507;SDS011;40157;42.566;27.526;2024-01-16T06:26:36;40.53;;;17.57;;
19507;SDS011;40157;42.566;27.526;2024-01-16T06:28:37;47.93;;;19.13;;
19507;SDS011;40157;42.566;27.526;2024-01-16T06:30:37;54.40;;;24.50;;
19507;SDS011;40157;42.566;27.526;2024-01-16T06:32:38;48.47;;;22.50;;
19507;SDS011;40157;42.566;27.526;2024-01-16T06:34:38;42.57;;;18.73;;
19507;SDS011;40157;42.566;27.526;2024-01-16T06:36:39;40.30;;;18.53;;
19507;SDS011;40157;42.566;27.526;2024-01-16T06:38:39;39.30;;;19.13;;
19507;SDS011;40157;42.566;27.526;2024-01-16T06:40:40;37.00;;;16.03;;
19507;SDS011;40157;42.566;27.526;2024-01-16T06:42:41;39.20;;;18.63;;
19507;SDS011;40157;42.566;27.526;2024-01-16T06:44:41;46.27;;;19.67;;
19507;SDS011;40157;42.566;27.526;2024-01-16T06:46:41;39.70;;;17.33;;
19507;SDS011;40157;42.566;27.526;2024-01-16T06:48:42;42.23;;;19.07;;
19507;SDS011;40157;42.566;27.526;2024-01-16T06:50:42;49.00;;;20.70;;
19507;SDS011;40157;42.566;27.526;2024-01-16T06:52:43;42.20;;;17.60;;
19507;SDS011;40157;42.566;27.526;2024-01-16T06:54:43;70.87;;;32.33;;
19507;SDS011;40157;42.566;27.526;2024-01-16T06:56:43;70.10;;;28.80;;
19507;SDS011;40157;42.566;27.526;2024-01-16T06:58:44;62.90;;;25.60;;
19507;SDS011;40157;42.566;27.526;2024-01-16T07:00:45;84.43;;;37.90;;
19507;SDS011;40157;42.566;27.526;2024-01-16T07:02:46;58.97;;;26.43;;
19507;SDS011;40157;42.566;27.526;2024-01-16T07:04:47;52.70;;;24.17;;
19507;SDS011;40157;42.566;27.526;2024-01-16T07:06:47;53.07;;;23.83;;
19507;SDS011;40157;42.566;27.526;2024-01-16T07:08:48;48.73;;;22.67;;
19507;SDS011;40157;42.566;27.526;2024-01-16T07:10:49;43.30;;;19.60;;
19507;SDS011;40157;42.566;27.526;2024-01-16T07:12:49;46.37;;;20.80;;
19507;SDS011;40157;42.566;27.526;2024-01-16T07:14:51;50.77;;;21.07;;
19507;SDS011;40157;42.566;27.526;2024-01-16T07:16:51;53.03;;;23.70;;
19507;SDS011;40157;42.566;27.526;2024-01-16T07:18:52;59.73;;;25.87;;
19507;SDS011;40157;42.566;27.526;2024-01-16T07:20:54;58.57;;;25.17;;
19507;SDS011;40157;42.566;27.526;2024-01-16T07:22:54;55.07;;;23.13;;
19507;SDS011;40157;42.566;27.526;2024-01-16T07:24:55;44.33;;;20.07;;
19507;SDS011;40157;42.566;27.526;2024-01-16T07:26:55;53.67;;;23.70;;
19507;SDS011;40157;42.566;27.526;2024-01-16T07:28:56;53.73;;;23.63;;
19507;SDS011;40157;42.566;27.526;2024-01-16T07:30:56;40.23;;;18.10;;
19507;SDS011;40157;42.566;27.526;2024-01-16T07:32:57;38.73;;;16.40;;
19507;SDS011;40157;42.566;27.526;2024-01-16T07:34:57;47.07;;;18.77;;
19507;SDS011;40157;42.566;27.526;2024-01-16T07:36:58;36.97;;;15.23;;
19507;SDS011;40157;42.566;27.526;2024-01-16T07:38:58;35.37;;;15.00;;
19507;SDS011;40157;42.566;27.526;2024-01-16T07:40:59;41.03;;;16.37;;
19507;SDS011;40157;42.566;27.526;2024-01-16T07:42:59;32.20;;;13.80;;
19507;SDS011;40157;42.566;27.526;2024-01-16T07:45:00;37.67;;;17.50;;
19507;SDS011;40157;42.566;27.526;2024-01-16T07:47:04;44.27;;;18.50;;
19507;SDS011;40157;42.566;27.526;2024-01-16T07:49:05;33.73;;;14.13;;
19507;SDS011;40157;42.566;27.526;2024-01-16T07:51:05;29.10;;;12.63;;
19507;SDS011;40157;42.566;27.526;2024-01-16T07:53:06;28.20;;;13.77;;
19507;SDS011;40157;42.566;27.526;2024-01-16T07:55:06;28.50;;;14.60;;
19507;SDS011;40157;42.566;27.526;2024-01-16T07:57:07;32.70;;;15.20;;
19507;SDS011;40157;42.566;27.526;2024-01-16T07:59:07;29.87;;;14.20;;
19507;SDS011;40157;42.566;27.526;2024-01-16T08:01:08;32.43;;;14.63;;
19507;SDS011;40157;42.566;27.526;2024-01-16T08:03:08;28.23;;;14.07;;
19507;SDS011;40157;42.566;27.526;2024-01-16T08:05:14;28.93;;;14.77;;
19507;SDS011;40157;42.566;27.526;2024-01-16T08:07:15;35.40;;;17.17;;
19507;SDS011;40157;42.566;27.526;2024-01-16T08:09:16;36.07;;;16.70;;
19507;SDS011;40157;42.566;27.526;2024-01-16T08:11:18;38.13;;;17.80;;
19507;SDS011;40157;42.566;27.526;2024-01-16T08:13:19;28.83;;;15.13;;
19507;SDS011;40157;42.566;27.526;2024-01-16T08:15:19;24.63;;;13.10;;
19507;SDS011;40157;42.566;27.526;2024-01-16T08:17:20;29.40;;;13.23;;
19507;SDS011;40157;42.566;27.526;2024-01-16T08:19:20;25.13;;;12.77;;
19507;SDS011;40157;42.566;27.526;2024-01-16T08:21:20;24.00;;;12.00;;
19507;SDS011;40157;42.566;27.526;2024-01-16T08:23:21;19.03;;;10.17;;
19507;SDS011;40157;42.566;27.526;2024-01-16T08:25:21;17.70;;;10.33;;
19507;SDS011;40157;42.566;27.526;2024-01-16T08:27:22;20.57;;;11.17;;
19507;SDS011;40157;42.566;27.526;2024-01-16T08:29:23;24.30;;;13.87;;
19507;SDS011;40157;42.566;27.526;2024-01-16T08:31:24;23.70;;;12.93;;
19507;SDS011;40157;42.566;27.526;2024-01-16T08:33:24;18.93;;;10.50;;
19507;SDS011;40157;42.566;27.526;2024-01-16T08:35:25;22.80;;;10.40;;
19507;SDS011;40157;42.566;27.526;2024-01-16T08:37:25;21.37;;;9.57;;
19507;SDS011;40157;42.566;27.526;2024-01-16T08:39:26;18.07;;;8.53;;
19507;SDS011;40157;42.566;27.526;2024-01-16T08:41:27;23.03;;;8.57;;
19507;SDS011;40157;42.566;27.526;2024-01-16T08:43:28;14.73;;;7.07;;
19507;SDS011;40157;42.566;27.526;2024-01-16T08:45:28;14.07;;;7.00;;
19507;SDS011;40157;42.566;27.526;2024-01-16T08:47:29;12.33;;;6.90;;
19507;SDS011;40157;42.566;27.526;2024-01-16T08:49:29;13.13;;;6.53;;
19507;SDS011;40157;42.566;27.526;2024-01-16T08:51:30;13.97;;;7.73;;
19507;SDS011;40157;42.566;27.526;2024-01-16T08:53:30;27.40;;;15.50;;
19507;SDS011;40157;42.566;27.526;2024-01-16T08:55:31;20.40;;;11.10;;
19507;SDS011;40157;42.566;27.526;2024-01-16T08:57:31;21.63;;;10.57;;
19507;SDS011;40157;42.566;27.526;2024-01-16T08:59:32;12.30;;;7.40;;
19507;SDS011;40157;42.566;27.526;2024-01-16T09:01:32;13.43;;;6.73;;
19507;SDS011;40157;42.566;27.526;2024-01-16T09:03:33;13.33;;;6.70;;
19507;SDS011;40157;42.566;27.526;2024-01-16T09:05:34;15.33;;;6.07;;
19507;SDS011;40157;42.566;27.526;2024-01-16T09:07:38;14.87;;;7.23;;
19507;SDS011;40157;42.566;27.526;2024-01-16T09:09:39;11.83;;;6.40;;
19507;SDS011;40157;42.566;27.526;2024-01-16T09:11:39;15.40;;;7.30;;
19507;SDS011;40157;42.566;27.526;2024-01-16T09:13:39;16.10;;;7.10;;
19507;SDS011;40157;42.566;27.526;2024-01-16T09:15:40;13.30;;;7.13;;
19507;SDS011;40157;42.566;27.526;2024-01-16T09:17:40;16.67;;;9.43;;
19507;SDS011;40157;42.566;27.526;2024-01-16T09:19:41;19.00;;;10.63;;
19507;SDS011;40157;42.566;27.526;2024-01-16T09:21:41;12.03;;;6.37;;
19507;SDS011;40157;42.566;27.526;2024-01-16T09:23:42;8.13;;;4.33;;
19507;SDS011;40157;42.566;27.526;2024-01-16T09:25:42;9.40;;;5.83;;
19507;SDS011;40157;42.566;27.526;2024-01-16T09:27:43;7.13;;;4.40;;
19507;SDS011;40157;42.566;27.526;2024-01-16T09:29:43;7.63;;;3.40;;
19507;SDS011;40157;42.566;27.526;2024-01-16T09:31:43;7.90;;;3.53;;
19507;SDS011;40157;42.566;27.526;2024-01-16T09:33:44;6.93;;;3.50;;
19507;SDS011;40157;42.566;27.526;2024-01-16T09:35:44;5.90;;;3.50;;
19507;SDS011;40157;42.566;27.526;2024-01-16T09:37:45;4.67;;;2.87;;
19507;SDS011;40157;42.566;27.526;2024-01-16T09:39:46;8.77;;;2.87;;
19507;SDS011;40157;42.566;27.526;2024-01-16T09:41:46;10.43;;;3.20;;
19507;SDS011;40157;42.566;27.526;2024-01-16T09:43:47;5.20;;;2.93;;
19507;SDS011;40157;42.566;27.526;2024-01-16T09:45:47;5.83;;;3.00;;
19507;SDS011;40157;42.566;27.526;2024-01-16T09:47:49;8.00;;;2.73;;
19507;SDS011;40157;42.566;27.526;2024-01-16T09:49:51;3.97;;;2.50;;
19507;SDS011;40157;42.566;27.526;2024-01-16T09:51:52;4.90;;;2.87;;
19507;SDS011;40157;42.566;27.526;2024-01-16T09:53:53;4.37;;;2.40;;
19507;SDS011;40157;42.566;27.526;2024-01-16T09:55:54;6.67;;;2.80;;
19507;SDS011;40157;42.566;27.526;2024-01-16T09:58:01;4.63;;;2.73;;
19507;SDS011;40157;42.566;27.526;2024-01-16T10:00:03;3.33;;;1.87;;
19507;SDS011;40157;42.566;27.526;2024-01-16T10:02:07;3.43;;;1.60;;
19507;SDS011;40157;42.566;27.526;2024-01-16T10:04:10;4.40;;;1.57;;
19507;SDS011;40157;42.566;27.526;2024-01-16T10:06:10;7.13;;;1.93;;
19507;SDS011;40157;42.566;27.526;2024-01-16T10:08:12;3.97;;;2.13;;
19507;SDS011;40157;42.566;27.526;2024-01-16T10:10:12;3.40;;;1.80;;
19507;SDS011;40157;42.566;27.526;2024-01-16T10:12:13;2.90;;;1.73;;
19507;SDS011;40157;42.566;27.526;2024-01-16T10:14:14;4.83;;;2.00;;
19507;SDS011;40157;42.566;27.526;2024-01-16T10:16:17;3.23;;;1.70;;
19507;SDS011;40157;42.566;27.526;2024-01-16T10:18:21;4.13;;;1.70;;
19507;SDS011;40157;42.566;27.526;2024-01-16T10:20:32;3.33;;;1.93;;
19507;SDS011;40157;42.566;27.526;2024-01-16T10:22:34;3.30;;;1.80;;
19507;SDS011;40157;42.566;27.526;2024-01-16T10:24:34;3.40;;;1.47;;
19507;SDS011;40157;42.566;27.526;2024-01-16T10:26:35;2.10;;;1.47;;
19507;SDS011;40157;42.566;27.526;2024-01-16T10:28:39;3.50;;;1.50;;
19507;SDS011;40157;42.566;27.526;2024-01-16T10:30:41;4.20;;;1.57;;
19507;SDS011;40157;42.566;27.526;2024-01-16T10:32:42;2.60;;;1.63;;
19507;SDS011;40157;42.566;27.526;2024-01-16T10:34:43;3.10;;;1.30;;
19507;SDS011;40157;42.566;27.526;2024-01-16T10:36:43;2.70;;;1.13;;
19507;SDS011;40157;42.566;27.526;2024-01-16T10:38:44;2.17;;;1.00;;
19507;SDS011;40157;42.566;27.526;2024-01-16T10:40:45;2.97;;;1.43;;
19507;SDS011;40157;42.566;27.526;2024-01-16T10:42:46;2.17;;;1.20;;
19507;SDS011;40157;42.566;27.526;2024-01-16T10:44:56;2.57;;;1.30;;
19507;SDS011;40157;42.566;27.526;2024-01-16T10:47:18;2.37;;;1.30;;
19507;SDS011;40157;42.566;27.526;2024-01-16T10:49:18;2.20;;;1.10;;
19507;SDS011;40157;42.566;27.526;2024-01-16T10:51:18;2.53;;;1.53;;
19507;SDS011;40157;42.566;27.526;2024-01-16T10:53:19;2.10;;;1.40;;
19507;SDS011;40157;42.566;27.526;2024-01-16T10:55:24;2.10;;;1.50;;
19507;SDS011;40157;42.566;27.526;2024-01-16T10:57:28;2.00;;;1.27;;
19507;SDS011;40157;42.566;27.526;2024-01-16T10:59:34;1.33;;;1.10;;
19507;SDS011;40157;42.566;27.526;2024-01-16T11:01:56;4.07;;;1.10;;
19507;SDS011;40157;42.566;27.526;2024-01-16T11:04:00;1.80;;;0.83;;
19507;SDS011;40157;42.566;27.526;2024-01-16T11:06:02;1.10;;;0.80;;
19507;SDS011;40157;42.566;27.526;2024-01-16T11:08:06;4.03;;;1.00;;
19507;SDS011;40157;42.566;27.526;2024-01-16T11:10:10;2.47;;;0.87;;
19507;SDS011;40157;42.566;27.526;2024-01-16T11:12:10;0.90;;;0.73;;
19507;SDS011;40157;42.566;27.526;2024-01-16T11:14:16;1.07;;;0.80;;
19507;SDS011;40157;42.566;27.526;2024-01-16T11:16:17;1.60;;;0.60;;
19507;SDS011;40157;42.566;27.526;2024-01-16T11:18:19;1.67;;;0.60;;
19507;SDS011;40157;42.566;27.526;2024-01-16T11:20:20;1.27;;;0.67;;
19507;SDS011;40157;42.566;27.526;2024-01-16T11:22:21;0.80;;;0.80;;
19507;SDS011;40157;42.566;27.526;2024-01-16T11:24:22;0.80;;;0.57;;
19507;SDS011;40157;42.566;27.526;2024-01-16T11:26:26;4.23;;;0.90;;
19507;SDS011;40157;42.566;27.526;2024-01-16T11:28:32;1.57;;;0.63;;
19507;SDS011;40157;42.566;27.526;2024-01-16T11:30:32;7.23;;;0.83;;
19507;SDS011;40157;42.566;27.526;2024-01-16T11:32:42;1.30;;;0.80;;
19507;SDS011;40157;42.566;27.526;2024-01-16T11:36:49;1.47;;;0.70;;
19507;SDS011;40157;42.566;27.526;2024-01-16T11:38:57;2.43;;;1.43;;
19507;SDS011;40157;42.566;27.526;2024-01-16T11:40:58;4.23;;;0.80;;
19507;SDS011;40157;42.566;27.526;2024-01-16T11:42:58;6.37;;;0.80;;
19507;SDS011;40157;42.566;27.526;2024-01-16T11:47:31;1.97;;;0.73;;
19507;SDS011;40157;42.566;27.526;2024-01-16T11:49:32;2.60;;;0.90;;